Time;durP1;ratioP1;P1;durP2;ratioP2;P2;SDS_P1;SDS_P2;PMS_P1;PMS_P2;Temp;Humidity;BMP_temperature;BMP_pressure;BME280_temperature;BME280_humidity;BME280_pressure;Samples;Min_cycle;Max_cycle;Signal;HPM_P1;HPM_P2
2023/06/04 00:00:03;;;;;;;12.20;9.57;;;;;;;;;;5083211;28;20209;-73
2023/06/04 00:02:30;;;;;;;11.93;7.47;;;;;;;;;;5091004;28;20307;-73
2023/06/04 00:04:58;;;;;;;8.73;6.10;;;;;;;;;;5065051;28;20321;-73
2023/06/04 00:07:25;;;;;;;7.47;6.13;;;;;;;;;;5085245;28;20740;-73
2023/06/04 00:09:53;;;;;;;6.97;5.63;;;;;;;;;;5089567;28;20253;-74
2023/06/04 00:12:20;;;;;;;7.00;4.77;;;;;;;;;;5073662;28;20630;-74
2023/06/04 00:14:48;;;;;;;7.10;5.17;;;;;;;;;;5090400;28;20248;-73
2023/06/04 00:17:15;;;;;;;5.50;4.63;;;;;;;;;;5093092;28;20235;-74
2023/06/04 00:19:43;;;;;;;6.87;5.20;;;;;;;;;;5087366;28;20204;-75
2023/06/04 00:22:10;;;;;;;8.30;5.10;;;;;;;;;;5093006;28;20208;-74
2023/06/04 00:24:40;;;;;;;5.27;4.77;;;;;;;;;;5095556;28;20228;-73
2023/06/04 00:27:11;;;;;;;6.50;4.80;;;;;;;;;;5076044;28;20197;-74
2023/06/04 00:29:38;;;;;;;5.93;5.00;;;;;;;;;;5094417;28;20582;-75
2023/06/04 00:32:06;;;;;;;8.97;4.90;;;;;;;;;;5099063;28;20291;-74
2023/06/04 00:34:34;;;;;;;5.83;4.77;;;;;;;;;;5100408;28;20297;-73
2023/06/04 00:37:01;;;;;;;6.90;4.77;;;;;;;;;;5099877;27;20204;-74
2023/06/04 00:39:29;;;;;;;7.47;4.70;;;;;;;;;;5104490;27;20204;-73
2023/06/04 00:41:57;;;;;;;6.83;4.37;;;;;;;;;;5093640;28;20204;-74
2023/06/04 00:44:25;;;;;;;15.20;7.73;;;;;;;;;;5100982;28;20270;-74
2023/06/04 00:46:53;;;;;;;18.80;9.77;;;;;;;;;;5099461;28;20197;-74
2023/06/04 00:49:21;;;;;;;20.00;10.47;;;;;;;;;;5094183;28;20211;-73
2023/06/04 00:51:48;;;;;;;10.80;6.73;;;;;;;;;;5095890;28;20205;-73
2023/06/04 00:54:20;;;;;;;28.50;12.33;;;;;;;;;;5092490;28;20237;-73
2023/06/04 00:56:48;;;;;;;9.20;5.40;;;;;;;;;;5079723;28;20200;-74
2023/06/04 00:59:16;;;;;;;5.50;4.10;;;;;;;;;;5069343;28;20586;-74
2023/06/04 01:01:48;;;;;;;6.93;4.37;;;;;;;;;;5067062;28;20221;-74
2023/06/04 01:04:27;;;;;;;6.93;4.43;;;;;;;;;;5088455;28;20228;-74
2023/06/04 01:06:58;;;;;;;5.83;4.03;;;;;;;;;;5093307;28;20258;-75
2023/06/04 01:09:30;;;;;;;8.70;4.30;;;;;;;;;;5083501;28;20239;-74
2023/06/04 01:11:58;;;;;;;6.30;4.83;;;;;;;;;;5067548;28;20250;-73
2023/06/04 01:14:26;;;;;;;5.53;4.13;;;;;;;;;;5093586;28;20220;-75
2023/06/04 01:17:01;;;;;;;4.37;3.87;;;;;;;;;;5085317;28;20204;-75
2023/06/04 01:19:31;;;;;;;6.23;4.10;;;;;;;;;;5083453;28;20200;-74
2023/06/04 01:22:03;;;;;;;6.53;4.47;;;;;;;;;;5095847;28;20716;-74
2023/06/04 01:24:36;;;;;;;5.13;4.53;;;;;;;;;;5101125;28;20219;-74
2023/06/04 01:27:04;;;;;;;6.27;4.83;;;;;;;;;;5102337;28;20196;-74
2023/06/04 01:29:32;;;;;;;6.80;5.00;;;;;;;;;;5093270;28;20215;-73
2023/06/04 01:31:59;;;;;;;16.43;10.17;;;;;;;;;;5078178;28;20247;-73
2023/06/04 01:34:27;;;;;;;11.57;7.57;;;;;;;;;;5098225;28;20228;-74
2023/06/04 01:36:55;;;;;;;10.20;7.60;;;;;;;;;;5085871;28;20205;-75
2023/06/04 01:39:28;;;;;;;12.30;7.93;;;;;;;;;;5079347;28;20207;-75
2023/06/04 01:41:56;;;;;;;13.27;8.07;;;;;;;;;;5069262;28;21219;-75
2023/06/04 01:44:24;;;;;;;7.00;5.80;;;;;;;;;;5079475;28;20227;-74
2023/06/04 01:46:52;;;;;;;6.47;5.00;;;;;;;;;;5086505;28;20687;-76
2023/06/04 01:49:19;;;;;;;12.67;8.40;;;;;;;;;;5087583;28;20208;-75
2023/06/04 01:51:49;;;;;;;14.27;7.70;;;;;;;;;;5090463;28;20292;-74
2023/06/04 01:54:20;;;;;;;11.77;7.33;;;;;;;;;;5085394;28;20232;-74
2023/06/04 01:56:48;;;;;;;8.83;7.33;;;;;;;;;;5087095;28;20661;-75
2023/06/04 01:59:17;;;;;;;9.33;6.97;;;;;;;;;;5089913;28;20653;-74
2023/06/04 02:01:44;;;;;;;11.67;8.03;;;;;;;;;;5084382;28;20197;-75
2023/06/04 02:04:11;;;;;;;9.63;6.33;;;;;;;;;;5083041;28;20638;-75
2023/06/04 02:06:39;;;;;;;8.03;5.83;;;;;;;;;;5088787;28;20205;-74
2023/06/04 02:09:06;;;;;;;8.57;6.07;;;;;;;;;;5085031;28;20214;-75
2023/06/04 02:11:33;;;;;;;7.60;5.53;;;;;;;;;;5079366;28;20211;-75
2023/06/04 02:14:01;;;;;;;6.73;5.30;;;;;;;;;;5074856;28;20281;-75
2023/06/04 02:16:28;;;;;;;9.50;5.77;;;;;;;;;;5080765;28;20509;-76
2023/06/04 02:18:55;;;;;;;6.13;4.70;;;;;;;;;;5079789;28;20196;-75
2023/06/04 02:21:22;;;;;;;9.70;4.90;;;;;;;;;;5079462;28;20618;-75
2023/06/04 02:23:50;;;;;;;5.00;4.27;;;;;;;;;;5079753;28;20232;-75
2023/06/04 02:26:17;;;;;;;5.47;4.97;;;;;;;;;;5077194;28;21181;-75
2023/06/04 02:28:44;;;;;;;6.47;4.80;;;;;;;;;;5077659;28;20200;-76
2023/06/04 02:31:11;;;;;;;7.47;5.80;;;;;;;;;;5081324;28;20200;-75
2023/06/04 02:33:39;;;;;;;8.47;6.57;;;;;;;;;;5087108;28;20846;-75
2023/06/04 02:36:06;;;;;;;11.63;7.63;;;;;;;;;;5091175;28;20655;-75
2023/06/04 02:38:33;;;;;;;6.70;5.97;;;;;;;;;;5081826;28;20245;-75
2023/06/04 02:41:01;;;;;;;6.77;5.70;;;;;;;;;;5059469;28;20216;-74
2023/06/04 02:43:28;;;;;;;9.20;5.73;;;;;;;;;;5070492;28;20213;-74
2023/06/04 02:45:55;;;;;;;7.57;5.33;;;;;;;;;;5088118;28;20766;-75
2023/06/04 02:48:22;;;;;;;6.10;5.47;;;;;;;;;;5077361;28;20235;-75
2023/06/04 02:50:50;;;;;;;8.57;5.70;;;;;;;;;;5077938;27;20201;-75
2023/06/04 02:53:17;;;;;;;7.10;5.80;;;;;;;;;;5076937;28;20205;-74
2023/06/04 02:55:44;;;;;;;8.37;5.50;;;;;;;;;;5079995;28;20208;-75
2023/06/04 02:58:14;;;;;;;6.40;4.90;;;;;;;;;;5056165;28;20212;-75
2023/06/04 03:00:41;;;;;;;7.40;5.17;;;;;;;;;;5079567;28;20208;-75
2023/06/04 03:03:08;;;;;;;6.10;5.03;;;;;;;;;;5087024;28;20209;-75
2023/06/04 03:05:36;;;;;;;7.77;4.73;;;;;;;;;;5085954;28;20228;-74
2023/06/04 03:08:04;;;;;;;8.53;4.83;;;;;;;;;;5087868;28;20288;-74
2023/06/04 03:10:31;;;;;;;4.77;4.07;;;;;;;;;;5073729;28;20204;-74
2023/06/04 03:12:59;;;;;;;6.83;5.10;;;;;;;;;;5090002;28;20264;-74
2023/06/04 03:15:26;;;;;;;5.67;4.80;;;;;;;;;;5089361;28;20228;-75
2023/06/04 03:17:54;;;;;;;5.47;4.43;;;;;;;;;;5100479;28;20211;-74
2023/06/04 03:20:24;;;;;;;5.47;4.70;;;;;;;;;;5082237;28;20263;-75
2023/06/04 03:22:52;;;;;;;4.83;3.97;;;;;;;;;;5087906;28;20212;-74
2023/06/04 03:25:19;;;;;;;6.70;3.80;;;;;;;;;;5088075;28;20869;-73
2023/06/04 03:27:46;;;;;;;5.80;4.10;;;;;;;;;;5054417;28;20605;-74
2023/06/04 03:30:14;;;;;;;5.63;4.17;;;;;;;;;;5074759;28;24219;-74
2023/06/04 03:32:41;;;;;;;20.87;10.03;;;;;;;;;;5084258;28;20203;-75
2023/06/04 03:35:09;;;;;;;14.27;8.50;;;;;;;;;;5087945;28;20609;-75
2023/06/04 03:37:36;;;;;;;10.23;6.33;;;;;;;;;;5080866;28;24558;-75
2023/06/04 03:40:06;;;;;;;7.00;5.17;;;;;;;;;;5081510;28;20216;-74
2023/06/04 03:42:33;;;;;;;8.27;5.13;;;;;;;;;;5070459;28;20244;-74
2023/06/04 03:45:00;;;;;;;8.43;5.30;;;;;;;;;;5081333;28;20668;-74
2023/06/04 03:47:27;;;;;;;7.67;4.20;;;;;;;;;;5086210;28;20209;-75
2023/06/04 03:49:55;;;;;;;5.37;3.40;;;;;;;;;;5092075;28;20250;-74
2023/06/04 03:52:22;;;;;;;4.10;3.60;;;;;;;;;;5091691;28;20635;-73
2023/06/04 03:54:49;;;;;;;5.20;3.50;;;;;;;;;;5083796;27;20240;-74
2023/06/04 03:57:16;;;;;;;3.03;2.73;;;;;;;;;;5089207;28;20212;-74
2023/06/04 03:59:44;;;;;;;3.90;2.60;;;;;;;;;;5092318;28;20212;-74
2023/06/04 04:02:11;;;;;;;5.53;3.03;;;;;;;;;;5069377;28;20208;-73
2023/06/04 04:04:39;;;;;;;4.27;2.93;;;;;;;;;;5096019;28;20316;-74
2023/06/04 04:07:06;;;;;;;6.20;2.53;;;;;;;;;;5089312;28;20203;-75
2023/06/04 04:09:33;;;;;;;4.83;2.90;;;;;;;;;;5096583;28;20211;-75
2023/06/04 04:12:00;;;;;;;4.20;2.90;;;;;;;;;;5085743;28;20273;-74
2023/06/04 04:14:27;;;;;;;3.43;2.73;;;;;;;;;;5091121;28;20746;-74
2023/06/04 04:16:55;;;;;;;5.00;2.90;;;;;;;;;;5096213;28;20781;-74
2023/06/04 04:19:23;;;;;;;3.93;2.97;;;;;;;;;;5095007;28;20212;-74
2023/06/04 04:21:51;;;;;;;4.33;2.70;;;;;;;;;;5083653;28;20261;-74
2023/06/04 04:24:24;;;;;;;2.93;2.70;;;;;;;;;;5091596;28;20880;-74
2023/06/04 04:26:54;;;;;;;3.73;2.80;;;;;;;;;;5070885;28;20752;-75
2023/06/04 04:29:25;;;;;;;2.90;2.60;;;;;;;;;;5087883;28;20211;-74
2023/06/04 04:31:52;;;;;;;3.73;2.90;;;;;;;;;;5065847;28;20216;-74
2023/06/04 04:34:21;;;;;;;3.17;2.50;;;;;;;;;;5083835;28;20212;-75
2023/06/04 04:36:56;;;;;;;3.90;2.83;;;;;;;;;;5094237;28;20200;-75
2023/06/04 04:39:24;;;;;;;4.70;3.00;;;;;;;;;;5075494;27;20562;-73
2023/06/04 04:41:52;;;;;;;3.50;2.57;;;;;;;;;;5091845;28;20207;-73
2023/06/04 04:44:19;;;;;;;3.90;2.83;;;;;;;;;;5083755;28;20228;-74
2023/06/04 04:46:48;;;;;;;4.93;3.37;;;;;;;;;;5096346;28;20231;-74
2023/06/04 04:49:16;;;;;;;5.37;3.20;;;;;;;;;;5089158;28;20211;-73
2023/06/04 04:51:43;;;;;;;5.27;3.17;;;;;;;;;;5082256;27;20200;-74
2023/06/04 04:54:11;;;;;;;2.87;2.63;;;;;;;;;;5086694;28;20247;-75
2023/06/04 04:56:38;;;;;;;5.90;2.80;;;;;;;;;;5095251;28;20234;-75
2023/06/04 04:59:05;;;;;;;4.10;2.87;;;;;;;;;;5097025;28;20633;-75
2023/06/04 05:01:32;;;;;;;3.27;2.57;;;;;;;;;;5098268;28;20250;-75
2023/06/04 05:04:00;;;;;;;3.97;2.70;;;;;;;;;;5101526;28;20224;-75
2023/06/04 05:06:29;;;;;;;3.53;2.90;;;;;;;;;;5093691;28;20733;-75
2023/06/04 05:08:56;;;;;;;4.00;2.60;;;;;;;;;;5097414;28;20205;-74
2023/06/04 05:11:24;;;;;;;3.10;2.80;;;;;;;;;;5094086;28;20200;-75
2023/06/04 05:13:51;;;;;;;3.37;2.83;;;;;;;;;;5086102;28;20233;-75
2023/06/04 05:16:20;;;;;;;3.40;3.10;;;;;;;;;;5093745;28;20200;-74
2023/06/04 05:21:30;;;;;;;5.87;3.23;;;;;;;;;;5099238;28;20249;-75
2023/06/04 05:23:57;;;;;;;7.77;3.13;;;;;;;;;;5094585;28;20223;-75
2023/06/04 05:26:25;;;;;;;3.95;2.97;;;;;;;;;;5095527;28;20248;-74
2023/06/04 05:28:52;;;;;;;2.95;2.50;;;;;;;;;;5074032;28;20238;-74
2023/06/04 05:31:20;;;;;;;3.85;3.10;;;;;;;;;;5088064;28;20196;-75
2023/06/04 05:33:49;;;;;;;4.43;2.92;;;;;;;;;;5094379;28;20759;-75
2023/06/04 05:36:18;;;;;;;2.78;2.58;;;;;;;;;;5094242;28;20212;-77
2023/06/04 05:38:56;;;;;;;3.47;2.45;;;;;;;;;;5095327;28;20204;-75
2023/06/04 05:41:43;;;;;;;5.13;3.13;;;;;;;;;;5092442;28;20684;-76
2023/06/04 05:44:10;;;;;;;5.95;2.75;;;;;;;;;;5087881;28;20252;-76
2023/06/04 05:46:38;;;;;;;4.95;3.20;;;;;;;;;;5092953;28;20709;-74
2023/06/04 05:49:11;;;;;;;4.65;3.25;;;;;;;;;;5081889;28;20204;-75
2023/06/04 05:51:38;;;;;;;4.15;3.00;;;;;;;;;;5085390;28;20196;-75
2023/06/04 05:54:18;;;;;;;3.53;2.63;;;;;;;;;;5092736;28;20221;-75
2023/06/04 05:57:16;;;;;;;3.28;2.97;;;;;;;;;;5092633;27;20204;-75
2023/06/04 05:59:55;;;;;;;3.58;3.28;;;;;;;;;;5087189;28;20555;-76
2023/06/04 06:02:22;;;;;;;4.75;3.25;;;;;;;;;;5088127;28;20212;-74
2023/06/04 06:04:50;;;;;;;4.25;3.05;;;;;;;;;;5091855;28;20228;-75
2023/06/04 06:07:19;;;;;;;4.57;3.25;;;;;;;;;;5091649;28;20236;-74
2023/06/04 06:09:46;;;;;;;4.03;2.92;;;;;;;;;;5096686;28;20192;-74
2023/06/04 06:12:13;;;;;;;3.65;3.03;;;;;;;;;;5087797;28;20262;-74
2023/06/04 06:14:41;;;;;;;3.20;2.90;;;;;;;;;;5092146;28;20216;-73
2023/06/04 06:17:08;;;;;;;4.40;3.28;;;;;;;;;;5092251;28;20747;-72
2023/06/04 06:19:37;;;;;;;3.35;3.03;;;;;;;;;;5078632;28;20209;-73
2023/06/04 06:22:04;;;;;;;3.03;2.72;;;;;;;;;;5097544;28;21354;-74
2023/06/04 06:24:32;;;;;;;5.03;3.35;;;;;;;;;;5093331;28;20231;-71
2023/06/04 06:26:59;;;;;;;4.40;3.38;;;;;;;;;;5091996;28;20220;-74
2023/06/04 06:29:26;;;;;;;5.70;3.60;;;;;;;;;;5068541;28;20229;-71
2023/06/04 06:31:59;;;;;;;7.75;3.30;;;;;;;;;;5081146;28;20201;-73
2023/06/04 06:34:32;;;;;;;5.65;3.30;;;;;;;;;;5083129;28;20231;-72
2023/06/04 06:36:59;;;;;;;4.20;3.50;;;;;;;;;;5083443;28;20274;-72
2023/06/04 06:39:27;;;;;;;4.80;3.72;;;;;;;;;;5079966;28;20205;-74
2023/06/04 06:41:55;;;;;;;4.50;3.55;;;;;;;;;;5081358;28;20218;-74
2023/06/04 06:44:22;;;;;;;4.80;3.42;;;;;;;;;;5090850;28;20713;-75
2023/06/04 06:46:49;;;;;;;4.75;3.15;;;;;;;;;;5096776;28;20229;-74
2023/06/04 06:49:21;;;;;;;5.03;3.25;;;;;;;;;;5091759;28;20203;-73
2023/06/04 06:51:50;;;;;;;7.28;3.72;;;;;;;;;;5072212;28;20204;-72
2023/06/04 06:54:21;;;;;;;3.65;3.13;;;;;;;;;;5094927;28;20242;-74
2023/06/04 06:56:50;;;;;;;4.20;3.40;;;;;;;;;;5097433;28;20295;-75
2023/06/04 06:59:17;;;;;;;3.97;3.67;;;;;;;;;;5069799;28;20201;-73
2023/06/04 07:01:45;;;;;;;4.03;3.00;;;;;;;;;;5085303;28;20208;-74
2023/06/04 07:04:12;;;;;;;5.72;3.00;;;;;;;;;;5094637;28;20228;-73
2023/06/04 07:06:40;;;;;;;4.65;3.10;;;;;;;;;;5095510;28;20215;-73
2023/06/04 07:09:08;;;;;;;6.30;3.53;;;;;;;;;;5093146;28;20603;-74
2023/06/04 07:11:35;;;;;;;4.53;3.05;;;;;;;;;;5090090;28;20205;-73
2023/06/04 07:14:02;;;;;;;5.57;3.88;;;;;;;;;;5072841;28;20224;-73
2023/06/04 07:16:30;;;;;;;3.45;3.15;;;;;;;;;;5087912;28;20209;-73
2023/06/04 07:18:57;;;;;;;4.82;3.70;;;;;;;;;;5070814;28;20209;-72
2023/06/04 07:21:24;;;;;;;3.33;3.03;;;;;;;;;;5071045;28;20212;-72
2023/06/04 07:23:52;;;;;;;3.42;3.03;;;;;;;;;;5080102;28;20247;-73
2023/06/04 07:26:20;;;;;;;4.45;3.25;;;;;;;;;;5088842;28;20315;-73
2023/06/04 07:28:47;;;;;;;3.30;3.00;;;;;;;;;;5091001;28;20204;-71
2023/06/04 07:31:17;;;;;;;3.63;3.00;;;;;;;;;;5085284;28;20200;-74
2023/06/04 07:33:45;;;;;;;4.45;3.03;;;;;;;;;;5102073;28;20756;-75
2023/06/04 07:36:15;;;;;;;3.55;3.25;;;;;;;;;;5097104;28;20957;-75
2023/06/04 07:38:43;;;;;;;3.58;3.03;;;;;;;;;;5090443;28;20212;-74
2023/06/04 07:41:10;;;;;;;6.05;3.50;;;;;;;;;;5092174;28;20627;-74
2023/06/04 07:43:37;;;;;;;4.93;3.50;;;;;;;;;;5093556;28;20277;-74
2023/06/04 07:46:05;;;;;;;5.07;3.15;;;;;;;;;;5083196;28;20220;-74
2023/06/04 07:48:33;;;;;;;5.18;3.30;;;;;;;;;;5095160;28;20205;-75
2023/06/04 07:51:01;;;;;;;3.75;3.42;;;;;;;;;;5091885;28;20205;-73
2023/06/04 07:53:28;;;;;;;5.45;3.63;;;;;;;;;;5072430;28;20200;-73
2023/06/04 07:55:56;;;;;;;5.45;3.83;;;;;;;;;;5052102;28;20209;-74
2023/06/04 07:58:23;;;;;;;4.03;3.45;;;;;;;;;;5071349;28;20209;-74
2023/06/04 08:00:50;;;;;;;3.45;3.15;;;;;;;;;;5060718;28;20208;-73
2023/06/04 08:03:20;;;;;;;4.38;3.65;;;;;;;;;;5037626;28;20241;-72
2023/06/04 08:05:48;;;;;;;4.10;3.65;;;;;;;;;;5050680;28;20220;-74
2023/06/04 08:08:15;;;;;;;4.85;3.50;;;;;;;;;;5073020;28;20279;-73
2023/06/04 08:10:43;;;;;;;5.20;3.40;;;;;;;;;;5079972;28;20228;-75
2023/06/04 08:13:10;;;;;;;4.60;3.58;;;;;;;;;;5069906;28;20257;-73
2023/06/04 08:15:37;;;;;;;5.82;3.35;;;;;;;;;;5073368;28;20792;-73
2023/06/04 08:18:05;;;;;;;4.13;3.50;;;;;;;;;;5079036;28;20204;-75
2023/06/04 08:20:32;;;;;;;5.07;3.80;;;;;;;;;;5063039;28;21263;-72
2023/06/04 08:22:59;;;;;;;5.57;3.58;;;;;;;;;;5069942;28;20208;-72
2023/06/04 08:25:27;;;;;;;4.53;3.70;;;;;;;;;;5078700;27;20244;-72
2023/06/04 08:27:54;;;;;;;7.97;4.07;;;;;;;;;;5084542;28;20228;-72
2023/06/04 08:30:21;;;;;;;6.68;4.05;;;;;;;;;;5069247;28;20226;-72
2023/06/04 08:32:50;;;;;;;6.03;4.13;;;;;;;;;;5079158;28;20204;-75
2023/06/04 08:35:17;;;;;;;4.38;3.97;;;;;;;;;;5077448;28;20220;-73
2023/06/04 08:37:44;;;;;;;4.00;3.25;;;;;;;;;;5072195;28;21030;-74
2023/06/04 08:40:12;;;;;;;4.30;3.58;;;;;;;;;;5084274;28;20208;-73
2023/06/04 08:42:44;;;;;;;6.20;3.63;;;;;;;;;;5091894;28;20204;-73
2023/06/04 08:45:12;;;;;;;4.70;3.50;;;;;;;;;;5084309;27;20228;-74
2023/06/04 08:47:46;;;;;;;4.75;3.53;;;;;;;;;;5080992;28;20283;-73
2023/06/04 08:50:15;;;;;;;4.20;3.28;;;;;;;;;;5070053;28;20208;-73
2023/06/04 08:52:43;;;;;;;5.22;3.85;;;;;;;;;;5073372;28;20207;-74
2023/06/04 08:55:13;;;;;;;6.22;3.65;;;;;;;;;;5086374;28;20274;-72
2023/06/04 08:57:41;;;;;;;7.30;3.40;;;;;;;;;;5062431;28;20583;-73
2023/06/04 09:00:08;;;;;;;3.85;3.55;;;;;;;;;;5077453;28;20230;-71
2023/06/04 09:02:39;;;;;;;6.25;3.78;;;;;;;;;;5066308;28;20835;-75
2023/06/04 09:05:10;;;;;;;4.82;3.67;;;;;;;;;;5077590;27;20248;-74
2023/06/04 09:07:39;;;;;;;4.97;3.70;;;;;;;;;;5080883;27;20598;-74
2023/06/04 09:10:08;;;;;;;5.95;3.83;;;;;;;;;;5080885;27;20199;-74
2023/06/04 09:12:42;;;;;;;7.32;3.63;;;;;;;;;;5091545;27;20237;-74
2023/06/04 09:15:09;;;;;;;6.53;3.85;;;;;;;;;;5084788;28;20249;-75
2023/06/04 09:17:36;;;;;;;7.07;3.97;;;;;;;;;;5084200;27;20574;-72
2023/06/04 09:20:08;;;;;;;5.20;4.00;;;;;;;;;;5080916;28;20211;-73
2023/06/04 09:22:37;;;;;;;6.30;3.60;;;;;;;;;;5074397;28;20237;-74
2023/06/04 09:25:12;;;;;;;5.65;4.07;;;;;;;;;;5088120;28;20618;-74
2023/06/04 09:27:40;;;;;;;4.68;3.30;;;;;;;;;;5089885;27;20758;-74
2023/06/04 09:30:09;;;;;;;4.07;3.38;;;;;;;;;;5096822;28;20205;-74
2023/06/04 09:32:39;;;;;;;5.60;3.63;;;;;;;;;;5088888;28;20284;-73
2023/06/04 09:35:17;;;;;;;4.10;3.70;;;;;;;;;;5079520;27;20216;-75
2023/06/04 09:37:56;;;;;;;3.95;3.30;;;;;;;;;;5084284;28;20207;-72
2023/06/04 09:40:36;;;;;;;5.60;3.70;;;;;;;;;;5062912;28;20208;-72
2023/06/04 09:43:03;;;;;;;6.22;3.92;;;;;;;;;;5081208;28;20226;-74
2023/06/04 09:45:31;;;;;;;3.47;3.15;;;;;;;;;;5072819;28;20277;-74
2023/06/04 09:48:01;;;;;;;5.85;3.95;;;;;;;;;;5074118;28;20885;-74
2023/06/04 09:50:41;;;;;;;6.22;4.53;;;;;;;;;;5071415;28;20201;-73
2023/06/04 09:53:22;;;;;;;7.30;4.20;;;;;;;;;;5082808;28;20196;-73
2023/06/04 09:56:16;;;;;;;7.65;4.53;;;;;;;;;;5081534;28;20994;-73
2023/06/04 09:58:44;;;;;;;6.03;3.85;;;;;;;;;;5079567;28;20257;-72
2023/06/04 10:01:14;;;;;;;5.65;4.20;;;;;;;;;;5083804;28;20205;-71
2023/06/04 10:03:42;;;;;;;5.00;3.75;;;;;;;;;;5059390;28;20224;-74
2023/06/04 10:06:11;;;;;;;4.30;3.90;;;;;;;;;;5078602;28;20305;-74
2023/06/04 10:08:40;;;;;;;5.90;3.90;;;;;;;;;;5064883;28;20482;-73
2023/06/04 10:11:08;;;;;;;5.25;3.95;;;;;;;;;;5075556;28;20200;-75
2023/06/04 10:13:55;;;;;;;4.20;3.83;;;;;;;;;;5093674;28;20251;-75
2023/06/04 10:16:28;;;;;;;6.45;4.25;;;;;;;;;;5054242;28;20208;-74
2023/06/04 10:19:02;;;;;;;5.93;4.13;;;;;;;;;;5083878;28;20283;-73
2023/06/04 10:21:34;;;;;;;5.15;4.28;;;;;;;;;;5075040;28;20200;-73
2023/06/04 10:24:02;;;;;;;9.00;4.35;;;;;;;;;;5056204;28;21044;-74
2023/06/04 10:26:30;;;;;;;5.68;3.92;;;;;;;;;;5076154;28;20318;-72
2023/06/04 10:28:58;;;;;;;5.50;4.47;;;;;;;;;;5056358;28;20854;-74
2023/06/04 10:31:25;;;;;;;5.75;3.63;;;;;;;;;;5065444;28;20208;-74
2023/06/04 10:33:56;;;;;;;5.18;4.13;;;;;;;;;;5085022;28;20220;-74
2023/06/04 10:36:25;;;;;;;7.60;5.63;;;;;;;;;;5076319;28;20204;-74
2023/06/04 10:38:55;;;;;;;6.43;5.78;;;;;;;;;;5071199;28;20945;-75
2023/06/04 10:41:24;;;;;;;7.28;5.88;;;;;;;;;;5063852;28;20270;-74
2023/06/04 10:44:00;;;;;;;4.90;4.20;;;;;;;;;;5078870;28;20216;-73
2023/06/04 10:46:40;;;;;;;4.78;4.28;;;;;;;;;;5062240;28;20871;-76
2023/06/04 10:49:10;;;;;;;4.25;3.72;;;;;;;;;;5045497;28;20295;-75
2023/06/04 10:51:38;;;;;;;6.82;5.60;;;;;;;;;;5051994;28;20791;-74
2023/06/04 10:54:05;;;;;;;7.95;4.00;;;;;;;;;;5044301;28;20231;-76
2023/06/04 10:56:34;;;;;;;5.93;4.55;;;;;;;;;;5075946;28;20204;-76
2023/06/04 10:59:13;;;;;;;6.05;4.43;;;;;;;;;;5073429;28;20274;-74
2023/06/04 11:01:42;;;;;;;7.82;4.20;;;;;;;;;;5094213;28;20227;-75
2023/06/04 11:04:30;;;;;;;6.65;4.40;;;;;;;;;;5081983;28;20220;-75
2023/06/04 11:07:03;;;;;;;5.13;4.28;;;;;;;;;;5090532;28;20339;-73
2023/06/04 11:09:31;;;;;;;8.25;4.82;;;;;;;;;;5088393;28;20249;-75
2023/06/04 11:12:01;;;;;;;9.80;6.00;;;;;;;;;;5092822;28;20254;-75
2023/06/04 11:14:28;;;;;;;6.85;3.90;;;;;;;;;;5099176;28;20349;-77
2023/06/04 11:16:55;;;;;;;8.30;4.53;;;;;;;;;;5056668;28;20205;-77
2023/06/04 11:19:23;;;;;;;6.20;4.63;;;;;;;;;;5081246;28;20307;-77
2023/06/04 11:21:50;;;;;;;9.73;6.97;;;;;;;;;;5081659;28;20197;-77
2023/06/04 11:24:18;;;;;;;7.20;5.35;;;;;;;;;;5075716;28;20231;-75
2023/06/04 11:26:45;;;;;;;16.75;14.48;;;;;;;;;;5069641;28;20716;-76
2023/06/04 11:29:33;;;;;;;5.50;4.68;;;;;;;;;;5064328;28;20559;-75
2023/06/04 11:32:01;;;;;;;9.48;6.68;;;;;;;;;;5050283;28;20203;-74
2023/06/04 11:34:29;;;;;;;8.13;6.30;;;;;;;;;;5070248;28;20220;-74
2023/06/04 11:37:16;;;;;;;10.77;7.47;;;;;;;;;;5066110;28;20360;-75
2023/06/04 11:40:05;;;;;;;10.15;9.15;;;;;;;;;;5066499;28;20243;-72
2023/06/04 11:42:43;;;;;;;11.18;8.20;;;;;;;;;;5056784;28;20222;-74
2023/06/04 11:45:14;;;;;;;6.00;4.15;;;;;;;;;;5065448;28;20246;-72
2023/06/04 11:47:55;;;;;;;8.75;6.25;;;;;;;;;;5081474;28;20316;-76
2023/06/04 11:50:39;;;;;;;5.75;5.13;;;;;;;;;;5072939;28;20285;-76
2023/06/04 11:53:21;;;;;;;5.50;4.95;;;;;;;;;;5061956;28;20287;-77
2023/06/04 11:55:48;;;;;;;4.45;4.05;;;;;;;;;;5088134;28;20212;-74
2023/06/04 11:58:17;;;;;;;4.88;4.25;;;;;;;;;;5091024;28;20223;-77
2023/06/04 12:03:41;;;;;;;4.72;4.32;;;;;;;;;;5080561;28;20228;-75
2023/06/04 12:06:16;;;;;;;5.10;4.68;;;;;;;;;;5088911;28;20207;-77
2023/06/04 12:09:09;;;;;;;5.60;5.10;;;;;;;;;;5083513;28;20921;-74
2023/06/04 12:11:53;;;;;;;5.85;5.25;;;;;;;;;;5070074;28;20216;-76
2023/06/04 12:14:36;;;;;;;6.20;4.97;;;;;;;;;;5077691;28;20219;-72
2023/06/04 12:17:12;;;;;;;4.70;4.05;;;;;;;;;;5083478;28;20208;-72
2023/06/04 12:19:58;;;;;;;6.03;5.25;;;;;;;;;;5075082;28;20850;-74
2023/06/04 12:22:26;;;;;;;5.97;4.60;;;;;;;;;;5062658;28;20220;-74
2023/06/04 12:24:55;;;;;;;6.05;4.78;;;;;;;;;;5080984;28;20227;-74
2023/06/04 12:30:03;;;;;;;6.40;4.20;;;;;;;;;;5090413;28;20711;-74
2023/06/04 12:32:35;;;;;;;5.15;4.25;;;;;;;;;;5085524;28;20222;-73
2023/06/04 12:35:03;;;;;;;7.63;4.38;;;;;;;;;;5083667;28;20482;-73
2023/06/04 12:37:33;;;;;;;7.72;4.70;;;;;;;;;;5048666;28;20212;-72
2023/06/04 12:40:00;;;;;;;6.60;4.05;;;;;;;;;;5080280;28;21433;-73
2023/06/04 12:42:28;;;;;;;5.18;4.20;;;;;;;;;;5083131;28;20771;-72
2023/06/04 12:44:56;;;;;;;4.60;4.20;;;;;;;;;;5074987;28;20232;-75
2023/06/04 12:47:24;;;;;;;5.10;4.60;;;;;;;;;;5083962;27;20224;-76
2023/06/04 12:49:52;;;;;;;4.70;3.97;;;;;;;;;;5080493;28;20200;-76
2023/06/04 12:52:19;;;;;;;5.15;4.30;;;;;;;;;;5062830;28;20200;-76
2023/06/04 12:54:46;;;;;;;4.68;4.28;;;;;;;;;;5060691;28;20539;-76
2023/06/04 12:57:13;;;;;;;6.97;4.85;;;;;;;;;;5082593;28;20212;-75
2023/06/04 12:59:41;;;;;;;5.43;4.40;;;;;;;;;;5070691;28;20668;-76
2023/06/04 13:02:08;;;;;;;6.70;4.28;;;;;;;;;;5083287;28;20215;-75
2023/06/04 13:04:35;;;;;;;8.13;4.78;;;;;;;;;;5076951;28;20231;-76
2023/06/04 13:07:03;;;;;;;5.05;4.50;;;;;;;;;;5072956;28;20235;-77
2023/06/04 13:09:32;;;;;;;5.10;4.20;;;;;;;;;;5050521;28;20642;-76
2023/06/04 13:11:59;;;;;;;4.85;4.30;;;;;;;;;;5036937;28;20215;-78
2023/06/04 13:14:26;;;;;;;5.85;4.53;;;;;;;;;;5062801;27;22783;-76
2023/06/04 13:16:54;;;;;;;6.38;4.50;;;;;;;;;;5077843;28;20201;-76
2023/06/04 13:19:21;;;;;;;5.25;4.68;;;;;;;;;;5088002;28;20204;-77
2023/06/04 13:21:49;;;;;;;5.68;4.85;;;;;;;;;;5083932;28;20200;-77
2023/06/04 13:24:16;;;;;;;5.47;4.53;;;;;;;;;;5088244;28;20640;-74
2023/06/04 13:26:43;;;;;;;5.53;4.53;;;;;;;;;;5075892;27;20207;-77
2023/06/04 13:29:12;;;;;;;5.30;4.32;;;;;;;;;;5081758;28;21705;-76
2023/06/04 13:31:40;;;;;;;6.18;4.68;;;;;;;;;;5090896;28;20287;-75
2023/06/04 13:34:08;;;;;;;4.85;4.30;;;;;;;;;;5087546;28;20235;-77
2023/06/04 13:36:53;;;;;;;5.45;4.57;;;;;;;;;;5090129;28;20209;-76
2023/06/04 13:39:20;;;;;;;5.32;4.68;;;;;;;;;;5085550;28;20559;-74
2023/06/04 13:41:48;;;;;;;5.80;4.68;;;;;;;;;;5071079;28;20453;-75
2023/06/04 13:44:15;;;;;;;5.05;4.55;;;;;;;;;;5080077;28;20235;-76
2023/06/04 13:46:43;;;;;;;6.90;4.50;;;;;;;;;;5058380;28;20204;-76
2023/06/04 13:49:11;;;;;;;5.93;4.72;;;;;;;;;;5090590;28;20238;-77
2023/06/04 13:51:38;;;;;;;5.15;4.63;;;;;;;;;;5083953;28;20661;-75
2023/06/04 13:54:05;;;;;;;5.30;4.78;;;;;;;;;;5088154;28;20224;-74
2023/06/04 13:56:33;;;;;;;5.35;4.85;;;;;;;;;;5087274;28;20711;-76
2023/06/04 13:59:00;;;;;;;5.38;4.80;;;;;;;;;;5067649;28;20207;-75
2023/06/04 14:01:27;;;;;;;6.60;4.78;;;;;;;;;;5079709;28;20204;-76
2023/06/04 14:03:55;;;;;;;5.30;4.80;;;;;;;;;;5074254;28;20230;-76
2023/06/04 14:06:22;;;;;;;6.40;4.57;;;;;;;;;;5068579;28;20249;-77
2023/06/04 14:08:50;;;;;;;8.90;5.00;;;;;;;;;;5057843;28;20223;-77
2023/06/04 14:11:17;;;;;;;5.85;5.32;;;;;;;;;;5075655;28;21860;-76
2023/06/04 14:13:45;;;;;;;4.97;4.28;;;;;;;;;;5078012;28;20223;-76
2023/06/04 14:16:12;;;;;;;5.43;4.28;;;;;;;;;;5082031;28;20211;-78
2023/06/04 14:18:40;;;;;;;5.78;4.60;;;;;;;;;;5074324;28;20473;-75
2023/06/04 14:21:07;;;;;;;5.43;4.47;;;;;;;;;;5085718;28;20225;-77
2023/06/04 14:23:35;;;;;;;5.05;4.55;;;;;;;;;;5087085;28;20226;-75
2023/06/04 14:26:02;;;;;;;5.35;4.63;;;;;;;;;;5076546;28;20214;-77
2023/06/04 14:28:32;;;;;;;5.03;4.45;;;;;;;;;;5078142;28;20223;-74
2023/06/04 14:31:00;;;;;;;6.05;4.43;;;;;;;;;;5049749;28;20212;-76
2023/06/04 14:33:27;;;;;;;4.72;4.32;;;;;;;;;;5075610;28;20276;-78
2023/06/04 14:35:54;;;;;;;5.30;4.80;;;;;;;;;;5080626;28;20207;-76
2023/06/04 14:38:22;;;;;;;4.90;4.50;;;;;;;;;;5053980;28;20200;-76
2023/06/04 14:40:49;;;;;;;5.80;4.32;;;;;;;;;;5074135;28;20213;-78
2023/06/04 14:43:17;;;;;;;4.65;4.15;;;;;;;;;;5075147;28;20931;-74
2023/06/04 14:45:44;;;;;;;6.72;4.45;;;;;;;;;;5064031;28;20227;-75
2023/06/04 14:48:16;;;;;;;6.30;4.50;;;;;;;;;;5077592;28;20381;-76
2023/06/04 14:50:43;;;;;;;7.22;4.55;;;;;;;;;;5076497;28;20307;-77
2023/06/04 14:53:11;;;;;;;4.90;4.50;;;;;;;;;;5077396;28;20196;-78
2023/06/04 14:55:40;;;;;;;5.85;3.80;;;;;;;;;;5071139;28;20232;-77
2023/06/04 14:58:07;;;;;;;4.10;3.78;;;;;;;;;;5067833;28;20256;-76
2023/06/04 15:00:35;;;;;;;4.82;3.97;;;;;;;;;;5067935;28;20926;-76
2023/06/04 15:03:06;;;;;;;4.90;4.03;;;;;;;;;;5077076;28;20212;-75